Time,TemperatureF,DewpointF,PressureIn,WindDirection,WindDirectionDegrees,WindSpeedMPH,WindSpeedGustMPH,Humidity,HourlyPrecipIn,Conditions,Clouds,dailyrainin,SoftwareType,DateUTC
2013-09-11 00:12:00,62.0,45.0,30.12,ESE,123,0.0,-999.0,53,-99.99,,,-99.99,,2013-09-11 06:12:00,
2013-09-11 00:21:00,62.0,45.0,30.12,ESE,123,0.0,-999.0,53,-99.99,,,-99.99,,2013-09-11 06:21:00,
2013-09-11 00:42:00,62.0,45.0,30.12,ESE,123,0.0,-999.0,54,-99.99,,,-99.99,,2013-09-11 06:42:00,
2013-09-11 00:52:00,58.0,44.0,30.12,NW,323,0.0,-999.0,60,-99.99,,,-99.99,,2013-09-11 06:52:00,
2013-09-11 01:11:00,56.0,44.0,30.13,NW,324,0.0,-999.0,65,-99.99,,,-99.99,,2013-09-11 07:11:00,
2013-09-11 01:23:00,56.0,44.0,30.13,NNW,329,0.0,-999.0,63,-99.99,,,-99.99,,2013-09-11 07:23:00,
2013-09-11 01:52:00,56.0,44.0,30.14,NE,43,4.0,-999.0,63,-99.99,,,-99.99,,2013-09-11 07:52:00,
2013-09-11 02:11:00,55.0,43.0,30.14,NE,34,5.0,-999.0,64,-99.99,,,-99.99,,2013-09-11 08:11:00,
2013-09-11 02:21:00,55.0,43.0,30.14,NE,38,4.0,-999.0,64,-99.99,,,-99.99,,2013-09-11 08:21:00,
2013-09-11 02:52:00,55.0,45.0,30.14,NNE,30,3.0,-999.0,68,-99.99,,,-99.99,,2013-09-11 08:52:00,
2013-09-11 03:11:00,55.0,46.0,30.14,NNE,27,3.0,-999.0,71,-99.99,,,-99.99,,2013-09-11 09:11:00,
2013-09-11 03:21:00,55.0,47.0,30.14,NNE,23,4.0,-999.0,73,-99.99,,,-99.99,,2013-09-11 09:21:00,
2013-09-11 03:43:00,55.0,47.0,30.14,NNE,22,3.0,-999.0,75,-99.99,,,-99.99,,2013-09-11 09:43:00,
2013-09-11 03:53:00,55.0,48.0,30.14,NNE,15,2.0,-999.0,76,-99.99,,,-99.99,,2013-09-11 09:53:00,
2013-09-11 04:12:00,55.0,48.0,30.15,North,360,0.0,-999.0,77,-99.99,,,-99.99,,2013-09-11 10:12:00,
2013-09-11 04:23:00,55.0,49.0,30.14,North,360,0.0,-999.0,79,-99.99,,,-99.99,,2013-09-11 10:23:00,
2013-09-11 04:42:00,55.0,48.0,30.14,North,360,0.0,-999.0,77,-99.99,,,-99.99,,2013-09-11 10:42:00,
2013-09-11 04:53:00,55.0,48.0,30.14,North,355,0.0,-999.0,78,-99.99,,,-99.99,,2013-09-11 10:53:00,
2013-09-11 05:12:00,55.0,49.0,30.14,NNE,21,1.0,-999.0,81,-99.99,,,-99.99,,2013-09-11 11:12:00,
2013-09-11 05:21:00,55.0,50.0,30.14,North,5,5.0,-999.0,82,-99.99,,,-99.99,,2013-09-11 11:21:00,
2013-09-11 05:52:00,54.0,49.0,30.14,NNE,27,5.0,-999.0,82,-99.99,,,-99.99,,2013-09-11 11:52:00,
2013-09-11 06:11:00,54.0,49.0,30.15,NE,34,4.0,-999.0,82,-99.99,,,-99.99,,2013-09-11 12:11:00,
2013-09-11 06:21:00,54.0,48.0,30.15,North,355,0.0,-999.0,81,-99.99,,,-99.99,,2013-09-11 12:21:00,
2013-09-11 06:51:00,54.0,48.0,30.16,North,349,1.0,-999.0,79,-99.99,,,-99.99,,2013-09-11 12:51:00,
2013-09-11 07:12:00,54.0,48.0,30.17,North,355,0.0,-999.0,79,-99.99,,,-99.99,,2013-09-11 13:12:00,
2013-09-11 07:21:00,54.0,48.0,30.17,NNW,346,0.0,-999.0,79,-99.99,,,-99.99,,2013-09-11 13:21:00,
2013-09-11 07:41:00,54.0,48.0,30.17,NW,319,0.0,-999.0,79,-99.99,,,-99.99,,2013-09-11 13:41:00,
2013-09-11 07:52:00,54.0,47.0,30.18,NW,325,0.0,-999.0,78,-99.99,,,-99.99,,2013-09-11 13:52:00,
2013-09-11 08:11:00,55.0,49.0,30.18,NNW,342,0.0,-999.0,80,-99.99,,,-99.99,,2013-09-11 14:11:00,
2013-09-11 08:21:00,55.0,49.0,30.18,NNW,338,0.0,-999.0,79,-99.99,,,-99.99,,2013-09-11 14:21:00,
2013-09-11 08:52:00,56.0,49.0,30.19,NW,309,0.0,-999.0,76,-99.99,,,-99.99,,2013-09-11 14:52:00,
2013-09-11 09:22:00,58.0,49.0,30.19,NW,309,0.0,-999.0,72,-99.99,,,-99.99,,2013-09-11 15:22:00,
2013-09-11 09:42:00,58.0,49.0,30.19,NW,311,0.0,-999.0,72,-99.99,,,-99.99,,2013-09-11 15:42:00,
2013-09-11 09:54:00,59.0,50.0,30.19,NW,308,0.0,-999.0,71,-99.99,,,-99.99,,2013-09-11 15:54:00,
2013-09-11 10:13:00,59.0,49.0,30.20,NW,312,0.0,-999.0,70,-99.99,,,-99.99,,2013-09-11 16:13:00,
2013-09-11 10:23:00,60.0,50.0,30.21,NW,309,0.0,-999.0,69,-99.99,,,-99.99,,2013-09-11 16:23:00,
2013-09-11 10:52:00,60.0,50.0,30.22,West,265,0.0,-999.0,69,-99.99,,,-99.99,,2013-09-11 16:52:00,
2013-09-11 11:12:00,60.0,49.0,30.22,West,268,0.0,-999.0,67,-99.99,,,-99.99,,2013-09-11 17:12:00,
2013-09-11 11:23:00,61.0,50.0,30.22,West,268,0.0,-999.0,66,-99.99,,,-99.99,,2013-09-11 17:23:00,
2013-09-11 11:52:00,61.0,52.0,30.23,South,184,0.0,-999.0,71,-99.99,,,-99.99,,2013-09-11 17:52:00,
2013-09-11 12:12:00,59.0,50.0,30.24,SSE,155,0.0,-999.0,73,-99.99,,,-99.99,,2013-09-11 18:12:00,
2013-09-11 12:21:00,59.0,50.0,30.23,South,187,1.0,-999.0,72,-99.99,,,-99.99,,2013-09-11 18:21:00,
2013-09-11 12:52:00,57.0,51.0,30.23,SSW,194,5.0,-999.0,81,-99.99,,,-99.99,,2013-09-11 18:52:00,
2013-09-11 13:11:00,57.0,51.0,30.23,SW,218,5.0,-999.0,80,-99.99,,,-99.99,,2013-09-11 19:11:00,
2013-09-11 13:21:00,56.0,51.0,30.24,SSW,213,5.0,-999.0,84,-99.99,,,-99.99,,2013-09-11 19:21:00,
2013-09-11 13:52:00,57.0,52.0,30.24,WSW,247,5.0,-999.0,83,-99.99,,,-99.99,,2013-09-11 19:52:00,
2013-09-11 14:12:00,59.0,53.0,30.25,SSE,168,2.0,-999.0,81,-99.99,,,-99.99,,2013-09-11 20:12:00,
2013-09-11 14:21:00,59.0,53.0,30.25,SSE,168,2.0,-999.0,81,-99.99,,,-99.99,,2013-09-11 20:21:00,
2013-09-11 14:52:00,59.0,52.0,30.24,WSW,240,9.0,-999.0,78,-99.99,,,-99.99,,2013-09-11 20:52:00,
2013-09-11 15:11:00,59.0,52.0,30.24,WSW,240,8.0,-999.0,77,-99.99,,,-99.99,,2013-09-11 21:11:00,
2013-09-11 15:21:00,59.0,53.0,30.25,West,264,4.0,-999.0,80,-99.99,,,-99.99,,2013-09-11 21:21:00,
2013-09-11 15:44:00,59.0,54.0,30.24,WSW,246,4.0,-999.0,82,-99.99,,,-99.99,,2013-09-11 21:44:00,
2013-09-11 15:54:00,60.0,53.0,30.25,WSW,244,5.0,-999.0,78,-99.99,,,-99.99,,2013-09-11 21:54:00,
2013-09-11 16:13:00,60.0,52.0,30.25,SW,225,4.0,-999.0,75,-99.99,,,-99.99,,2013-09-11 22:13:00,
2013-09-11 16:24:00,61.0,53.0,30.25,SSW,196,1.0,-999.0,74,-99.99,,,-99.99,,2013-09-11 22:24:00,
2013-09-11 16:54:00,61.0,53.0,30.25,SW,223,3.0,-999.0,76,-99.99,,,-99.99,,2013-09-11 22:54:00,
2013-09-11 17:12:00,61.0,53.0,30.25,South,183,2.0,-999.0,76,-99.99,,,-99.99,,2013-09-11 23:12:00,
2013-09-11 17:22:00,60.0,53.0,30.26,SSW,211,3.0,-999.0,78,-99.99,,,-99.99,,2013-09-11 23:22:00,
2013-09-11 17:53:00,58.0,53.0,30.26,SW,233,8.0,-999.0,83,-99.99,,,-99.99,,2013-09-11 23:53:00,
2013-09-11 18:11:00,58.0,53.0,30.26,WSW,245,8.0,-999.0,84,-99.99,,,-99.99,,2013-09-12 00:11:00,
2013-09-11 18:21:00,58.0,54.0,30.27,WSW,248,6.0,-999.0,85,-99.99,,,-99.99,,2013-09-12 00:21:00,
2013-09-11 18:42:00,57.0,53.0,30.26,West,279,5.0,-999.0,85,-99.99,,,-99.99,,2013-09-12 00:42:00,
2013-09-11 18:52:00,57.0,53.0,30.26,NW,318,3.0,-999.0,86,-99.99,,,-99.99,,2013-09-12 00:52:00,
2013-09-11 19:11:00,56.0,52.0,30.26,West,271,6.0,-999.0,87,-99.99,,,-99.99,,2013-09-12 01:11:00,
2013-09-11 19:22:00,57.0,53.0,30.26,WNW,285,4.0,-999.0,87,-99.99,,,-99.99,,2013-09-12 01:22:00,
2013-09-11 19:41:00,56.0,52.0,30.27,WNW,284,4.0,-999.0,87,-99.99,,,-99.99,,2013-09-12 01:41:00,
2013-09-11 19:52:00,57.0,53.0,30.27,WNW,292,4.0,-999.0,86,-99.99,,,-99.99,,2013-09-12 01:52:00,
2013-09-11 20:12:00,57.0,53.0,30.27,WNW,286,5.0,-999.0,85,-99.99,,,-99.99,,2013-09-12 02:12:00,
2013-09-11 20:21:00,57.0,52.0,30.27,West,279,3.0,-999.0,84,-99.99,,,-99.99,,2013-09-12 02:21:00,
2013-09-11 21:21:00,58.0,53.0,30.30,NW,325,2.0,-999.0,82,-99.99,,,-99.99,,2013-09-12 03:21:00,
2013-09-11 21:54:00,57.0,52.0,30.30,NW,323,0.0,-999.0,83,-99.99,,,-99.99,,2013-09-12 03:54:00,
2013-09-11 22:14:00,57.0,52.0,30.30,NW,323,0.0,-999.0,84,-99.99,,,-99.99,,2013-09-12 04:14:00,
2013-09-11 22:23:00,57.0,52.0,30.30,WNW,297,2.0,-999.0,83,-99.99,,,-99.99,,2013-09-12 04:23:00,
2013-09-11 22:43:00,57.0,52.0,30.30,WNW,297,0.0,-999.0,84,-99.99,,,-99.99,,2013-09-12 04:43:00,
2013-09-11 22:54:00,57.0,53.0,30.30,WNW,301,0.0,-999.0,85,-99.99,,,-99.99,,2013-09-12 04:54:00,
2013-09-11 23:13:00,57.0,53.0,30.30,ENE,61,1.0,-999.0,87,-99.99,,,-99.99,,2013-09-12 05:13:00,
2013-09-11 23:22:00,57.0,53.0,30.29,NNW,348,3.0,-999.0,85,-99.99,,,-99.99,,2013-09-12 05:22:00,
2013-09-11 23:43:00,57.0,52.0,30.29,NNW,340,4.0,-999.0,84,-99.99,,,-99.99,,2013-09-12 05:43:00,
2013-09-11 23:52:00,57.0,52.0,30.30,NNW,330,3.0,-999.0,84,-99.99,,,-99.99,,2013-09-12 05:52:00,